sensor_id;sensor_type;location;lat;lon;timestamp;P1;durP1;ratioP1;P2;durP2;ratioP2
12151;SDS011;6139;51.274;7.128;2022-12-29T00:00:53;2.27;;;2.03;;
12151;SDS011;6139;51.274;7.128;2022-12-29T00:01:55;2.37;;;1.90;;
12151;SDS011;6139;51.274;7.128;2022-12-29T00:02:56;2.95;;;2.00;;
12151;SDS011;6139;51.274;7.128;2022-12-29T00:03:58;2.35;;;2.10;;
12151;SDS011;6139;51.274;7.128;2022-12-29T00:04:59;2.08;;;1.95;;
12151;SDS011;6139;51.274;7.128;2022-12-29T00:06:01;1.87;;;1.70;;
12151;SDS011;6139;51.274;7.128;2022-12-29T00:07:03;2.27;;;1.60;;
12151;SDS011;6139;51.274;7.128;2022-12-29T00:08:05;2.13;;;1.50;;
12151;SDS011;6139;51.274;7.128;2022-12-29T00:09:06;1.80;;;1.70;;
12151;SDS011;6139;51.274;7.128;2022-12-29T00:10:08;2.40;;;1.70;;
12151;SDS011;6139;51.274;7.128;2022-12-29T00:11:13;2.45;;;1.77;;
12151;SDS011;6139;51.274;7.128;2022-12-29T00:12:17;2.50;;;1.50;;
12151;SDS011;6139;51.274;7.128;2022-12-29T00:13:18;1.77;;;1.67;;
12151;SDS011;6139;51.274;7.128;2022-12-29T00:14:37;1.90;;;1.67;;
12151;SDS011;6139;51.274;7.128;2022-12-29T00:15:57;1.70;;;1.60;;
12151;SDS011;6139;51.274;7.128;2022-12-29T00:16:59;1.83;;;1.60;;
12151;SDS011;6139;51.274;7.128;2022-12-29T00:18:01;1.90;;;1.50;;
12151;SDS011;6139;51.274;7.128;2022-12-29T00:19:03;2.90;;;1.60;;
12151;SDS011;6139;51.274;7.128;2022-12-29T00:20:05;1.60;;;1.50;;
12151;SDS011;6139;51.274;7.128;2022-12-29T00:21:25;1.83;;;1.70;;
12151;SDS011;6139;51.274;7.128;2022-12-29T00:22:45;1.70;;;1.60;;
12151;SDS011;6139;51.274;7.128;2022-12-29T00:24:05;1.40;;;1.30;;
12151;SDS011;6139;51.274;7.128;2022-12-29T00:25:25;1.43;;;1.33;;
12151;SDS011;6139;51.274;7.128;2022-12-29T00:26:46;1.63;;;1.53;;
12151;SDS011;6139;51.274;7.128;2022-12-29T00:28:07;1.60;;;1.50;;
12151;SDS011;6139;51.274;7.128;2022-12-29T00:29:27;1.40;;;1.30;;
12151;SDS011;6139;51.274;7.128;2022-12-29T00:30:47;1.63;;;1.53;;
12151;SDS011;6139;51.274;7.128;2022-12-29T00:32:06;2.00;;;1.50;;
12151;SDS011;6139;51.274;7.128;2022-12-29T00:33:28;1.60;;;1.37;;
12151;SDS011;6139;51.274;7.128;2022-12-29T00:34:49;1.60;;;1.50;;
12151;SDS011;6139;51.274;7.128;2022-12-29T00:36:11;1.67;;;1.57;;
12151;SDS011;6139;51.274;7.128;2022-12-29T00:37:16;1.50;;;1.40;;
12151;SDS011;6139;51.274;7.128;2022-12-29T00:38:39;1.57;;;1.30;;
12151;SDS011;6139;51.274;7.128;2022-12-29T00:40:02;1.50;;;1.40;;
12151;SDS011;6139;51.274;7.128;2022-12-29T00:41:22;1.85;;;1.50;;
12151;SDS011;6139;51.274;7.128;2022-12-29T00:42:45;1.40;;;1.30;;
12151;SDS011;6139;51.274;7.128;2022-12-29T00:44:05;1.50;;;1.27;;
12151;SDS011;6139;51.274;7.128;2022-12-29T00:45:10;1.93;;;1.50;;
12151;SDS011;6139;51.274;7.128;2022-12-29T00:46:11;1.70;;;1.50;;
12151;SDS011;6139;51.274;7.128;2022-12-29T00:47:13;1.33;;;1.23;;
12151;SDS011;6139;51.274;7.128;2022-12-29T00:48:14;1.63;;;1.30;;
12151;SDS011;6139;51.274;7.128;2022-12-29T00:49:36;1.27;;;1.17;;
12151;SDS011;6139;51.274;7.128;2022-12-29T00:50:37;2.00;;;1.23;;
12151;SDS011;6139;51.274;7.128;2022-12-29T00:51:38;1.43;;;1.33;;
12151;SDS011;6139;51.274;7.128;2022-12-29T00:52:39;1.53;;;1.30;;
12151;SDS011;6139;51.274;7.128;2022-12-29T00:53:41;1.60;;;1.50;;
12151;SDS011;6139;51.274;7.128;2022-12-29T00:54:43;1.27;;;1.17;;
12151;SDS011;6139;51.274;7.128;2022-12-29T00:55:45;1.80;;;1.07;;
12151;SDS011;6139;51.274;7.128;2022-12-29T00:56:46;1.40;;;1.10;;
12151;SDS011;6139;51.274;7.128;2022-12-29T00:57:52;1.20;;;1.00;;
12151;SDS011;6139;51.274;7.128;2022-12-29T00:58:53;2.13;;;1.20;;
12151;SDS011;6139;51.274;7.128;2022-12-29T00:59:55;1.43;;;1.20;;
12151;SDS011;6139;51.274;7.128;2022-12-29T01:01:00;2.13;;;1.47;;
12151;SDS011;6139;51.274;7.128;2022-12-29T01:02:03;2.07;;;1.00;;
12151;SDS011;6139;51.274;7.128;2022-12-29T01:03:04;2.17;;;1.27;;
12151;SDS011;6139;51.274;7.128;2022-12-29T01:04:07;1.40;;;1.30;;
12151;SDS011;6139;51.274;7.128;2022-12-29T01:05:09;1.20;;;1.10;;
12151;SDS011;6139;51.274;7.128;2022-12-29T01:06:12;1.30;;;1.20;;
12151;SDS011;6139;51.274;7.128;2022-12-29T01:07:14;1.33;;;1.23;;
12151;SDS011;6139;51.274;7.128;2022-12-29T01:08:18;3.00;;;1.20;;
12151;SDS011;6139;51.274;7.128;2022-12-29T01:09:20;1.23;;;1.13;;
12151;SDS011;6139;51.274;7.128;2022-12-29T01:10:40;2.97;;;1.30;;
12151;SDS011;6139;51.274;7.128;2022-12-29T01:11:41;1.50;;;1.40;;
12151;SDS011;6139;51.274;7.128;2022-12-29T01:12:43;1.63;;;1.00;;
12151;SDS011;6139;51.274;7.128;2022-12-29T01:13:47;1.43;;;1.20;;
12151;SDS011;6139;51.274;7.128;2022-12-29T01:14:49;1.63;;;1.13;;
12151;SDS011;6139;51.274;7.128;2022-12-29T01:15:50;1.73;;;1.00;;
12151;SDS011;6139;51.274;7.128;2022-12-29T01:16:52;1.10;;;1.00;;
12151;SDS011;6139;51.274;7.128;2022-12-29T01:17:54;1.10;;;1.00;;
12151;SDS011;6139;51.274;7.128;2022-12-29T01:18:57;1.30;;;1.20;;
12151;SDS011;6139;51.274;7.128;2022-12-29T01:19:59;1.27;;;1.17;;
12151;SDS011;6139;51.274;7.128;2022-12-29T01:21:01;0.93;;;0.93;;
12151;SDS011;6139;51.274;7.128;2022-12-29T01:22:04;1.10;;;1.00;;
12151;SDS011;6139;51.274;7.128;2022-12-29T01:23:06;0.90;;;0.90;;
12151;SDS011;6139;51.274;7.128;2022-12-29T01:24:08;0.88;;;0.88;;
12151;SDS011;6139;51.274;7.128;2022-12-29T01:25:10;1.37;;;1.00;;
12151;SDS011;6139;51.274;7.128;2022-12-29T01:26:13;0.90;;;0.90;;
12151;SDS011;6139;51.274;7.128;2022-12-29T01:27:16;1.10;;;1.00;;
12151;SDS011;6139;51.274;7.128;2022-12-29T01:28:17;0.93;;;0.93;;
12151;SDS011;6139;51.274;7.128;2022-12-29T01:29:21;0.93;;;0.83;;
12151;SDS011;6139;51.274;7.128;2022-12-29T01:30:22;0.90;;;0.90;;
12151;SDS011;6139;51.274;7.128;2022-12-29T01:31:27;0.97;;;0.80;;
12151;SDS011;6139;51.274;7.128;2022-12-29T01:32:28;1.23;;;1.10;;
12151;SDS011;6139;51.274;7.128;2022-12-29T01:33:30;1.27;;;1.10;;
12151;SDS011;6139;51.274;7.128;2022-12-29T01:34:31;0.80;;;0.80;;
12151;SDS011;6139;51.274;7.128;2022-12-29T01:35:33;0.90;;;0.90;;
12151;SDS011;6139;51.274;7.128;2022-12-29T01:36:34;1.03;;;0.90;;
12151;SDS011;6139;51.274;7.128;2022-12-29T01:37:36;1.70;;;1.15;;
12151;SDS011;6139;51.274;7.128;2022-12-29T01:38:37;0.90;;;0.90;;
12151;SDS011;6139;51.274;7.128;2022-12-29T01:39:40;1.23;;;1.00;;
12151;SDS011;6139;51.274;7.128;2022-12-29T01:40:44;1.77;;;1.17;;
12151;SDS011;6139;51.274;7.128;2022-12-29T01:41:46;1.07;;;0.97;;
12151;SDS011;6139;51.274;7.128;2022-12-29T01:42:47;3.80;;;0.90;;
12151;SDS011;6139;51.274;7.128;2022-12-29T01:43:50;1.67;;;1.10;;
12151;SDS011;6139;51.274;7.128;2022-12-29T01:44:56;0.87;;;0.87;;
12151;SDS011;6139;51.274;7.128;2022-12-29T01:45:59;0.80;;;0.80;;
12151;SDS011;6139;51.274;7.128;2022-12-29T01:47:01;2.07;;;0.90;;
12151;SDS011;6139;51.274;7.128;2022-12-29T01:48:03;1.73;;;1.00;;
12151;SDS011;6139;51.274;7.128;2022-12-29T01:49:09;1.20;;;1.10;;
12151;SDS011;6139;51.274;7.128;2022-12-29T01:50:16;1.20;;;0.90;;
12151;SDS011;6139;51.274;7.128;2022-12-29T01:51:21;1.92;;;1.10;;
12151;SDS011;6139;51.274;7.128;2022-12-29T01:52:25;0.83;;;0.83;;
12151;SDS011;6139;51.274;7.128;2022-12-29T01:53:30;0.90;;;0.90;;
12151;SDS011;6139;51.274;7.128;2022-12-29T01:54:36;3.30;;;0.97;;
12151;SDS011;6139;51.274;7.128;2022-12-29T01:55:42;1.13;;;0.90;;
12151;SDS011;6139;51.274;7.128;2022-12-29T01:56:48;1.07;;;0.77;;
12151;SDS011;6139;51.274;7.128;2022-12-29T01:57:51;0.80;;;0.80;;
12151;SDS011;6139;51.274;7.128;2022-12-29T01:58:56;0.80;;;0.80;;
12151;SDS011;6139;51.274;7.128;2022-12-29T02:00:04;0.80;;;0.80;;
12151;SDS011;6139;51.274;7.128;2022-12-29T02:01:15;1.30;;;0.90;;
12151;SDS011;6139;51.274;7.128;2022-12-29T02:02:19;1.23;;;1.00;;
12151;SDS011;6139;51.274;7.128;2022-12-29T02:03:22;1.30;;;0.90;;
12151;SDS011;6139;51.274;7.128;2022-12-29T02:04:26;1.10;;;0.90;;
12151;SDS011;6139;51.274;7.128;2022-12-29T02:05:33;1.30;;;0.87;;
12151;SDS011;6139;51.274;7.128;2022-12-29T02:06:41;1.03;;;0.93;;
12151;SDS011;6139;51.274;7.128;2022-12-29T02:07:46;0.87;;;0.87;;
12151;SDS011;6139;51.274;7.128;2022-12-29T02:08:52;0.90;;;0.90;;
12151;SDS011;6139;51.274;7.128;2022-12-29T02:09:56;1.10;;;1.00;;
12151;SDS011;6139;51.274;7.128;2022-12-29T02:10:59;1.10;;;1.00;;
12151;SDS011;6139;51.274;7.128;2022-12-29T02:12:02;0.82;;;0.82;;
12151;SDS011;6139;51.274;7.128;2022-12-29T02:13:04;1.20;;;0.90;;
12151;SDS011;6139;51.274;7.128;2022-12-29T02:14:08;0.80;;;0.80;;
12151;SDS011;6139;51.274;7.128;2022-12-29T02:15:11;2.13;;;0.83;;
12151;SDS011;6139;51.274;7.128;2022-12-29T02:16:19;0.90;;;0.80;;
12151;SDS011;6139;51.274;7.128;2022-12-29T02:17:31;0.70;;;0.70;;
12151;SDS011;6139;51.274;7.128;2022-12-29T02:18:45;0.80;;;0.80;;
12151;SDS011;6139;51.274;7.128;2022-12-29T02:20:06;3.20;;;1.03;;
12151;SDS011;6139;51.274;7.128;2022-12-29T02:21:37;0.90;;;0.90;;
12151;SDS011;6139;51.274;7.128;2022-12-29T02:22:57;1.00;;;0.90;;
12151;SDS011;6139;51.274;7.128;2022-12-29T02:25:52;1.15;;;0.90;;
12151;SDS011;6139;51.274;7.128;2022-12-29T02:28:53;1.10;;;1.00;;
12151;SDS011;6139;51.274;7.128;2022-12-29T02:31:40;3.03;;;0.93;;
12151;SDS011;6139;51.274;7.128;2022-12-29T02:32:50;0.80;;;0.80;;
12151;SDS011;6139;51.274;7.128;2022-12-29T02:33:58;1.00;;;0.80;;
12151;SDS011;6139;51.274;7.128;2022-12-29T02:35:08;1.93;;;1.03;;
12151;SDS011;6139;51.274;7.128;2022-12-29T02:36:18;1.20;;;0.90;;
12151;SDS011;6139;51.274;7.128;2022-12-29T02:37:26;1.90;;;0.90;;
12151;SDS011;6139;51.274;7.128;2022-12-29T02:38:46;2.13;;;0.97;;
12151;SDS011;6139;51.274;7.128;2022-12-29T02:39:53;1.30;;;1.20;;
12151;SDS011;6139;51.274;7.128;2022-12-29T02:41:02;0.77;;;0.70;;
12151;SDS011;6139;51.274;7.128;2022-12-29T02:42:09;0.93;;;0.90;;
12151;SDS011;6139;51.274;7.128;2022-12-29T02:43:19;0.93;;;0.77;;
12151;SDS011;6139;51.274;7.128;2022-12-29T02:44:27;1.88;;;1.00;;
12151;SDS011;6139;51.274;7.128;2022-12-29T02:45:42;2.88;;;0.98;;
12151;SDS011;6139;51.274;7.128;2022-12-29T02:46:51;1.88;;;0.90;;
12151;SDS011;6139;51.274;7.128;2022-12-29T02:47:56;1.57;;;0.80;;
12151;SDS011;6139;51.274;7.128;2022-12-29T02:49:05;2.00;;;0.90;;
12151;SDS011;6139;51.274;7.128;2022-12-29T02:50:13;1.10;;;1.00;;
12151;SDS011;6139;51.274;7.128;2022-12-29T02:51:19;0.77;;;0.77;;
12151;SDS011;6139;51.274;7.128;2022-12-29T02:52:27;2.00;;;1.00;;
12151;SDS011;6139;51.274;7.128;2022-12-29T02:53:34;1.10;;;0.90;;
12151;SDS011;6139;51.274;7.128;2022-12-29T02:55:07;0.90;;;0.90;;
12151;SDS011;6139;51.274;7.128;2022-12-29T02:56:11;1.55;;;1.10;;
12151;SDS011;6139;51.274;7.128;2022-12-29T02:57:14;1.90;;;1.10;;
12151;SDS011;6139;51.274;7.128;2022-12-29T02:58:28;4.73;;;1.10;;
12151;SDS011;6139;51.274;7.128;2022-12-29T02:59:29;1.58;;;0.80;;
12151;SDS011;6139;51.274;7.128;2022-12-29T03:00:31;1.10;;;1.00;;
12151;SDS011;6139;51.274;7.128;2022-12-29T03:01:38;1.73;;;1.10;;
12151;SDS011;6139;51.274;7.128;2022-12-29T03:03:07;1.55;;;0.88;;
12151;SDS011;6139;51.274;7.128;2022-12-29T03:04:23;1.08;;;0.90;;
12151;SDS011;6139;51.274;7.128;2022-12-29T03:05:42;1.45;;;1.00;;
12151;SDS011;6139;51.274;7.128;2022-12-29T03:07:13;1.27;;;0.90;;
12151;SDS011;6139;51.274;7.128;2022-12-29T03:08:26;1.35;;;0.90;;
12151;SDS011;6139;51.274;7.128;2022-12-29T03:09:35;1.50;;;0.90;;
12151;SDS011;6139;51.274;7.128;2022-12-29T03:10:45;1.40;;;0.90;;
12151;SDS011;6139;51.274;7.128;2022-12-29T03:11:53;2.07;;;1.10;;
12151;SDS011;6139;51.274;7.128;2022-12-29T03:13:11;1.10;;;1.00;;
12151;SDS011;6139;51.274;7.128;2022-12-29T03:14:40;2.57;;;1.20;;
12151;SDS011;6139;51.274;7.128;2022-12-29T03:16:18;1.70;;;1.00;;
12151;SDS011;6139;51.274;7.128;2022-12-29T03:17:26;1.35;;;1.00;;
12151;SDS011;6139;51.274;7.128;2022-12-29T03:18:37;1.97;;;1.00;;
12151;SDS011;6139;51.274;7.128;2022-12-29T03:19:46;2.77;;;1.00;;
12151;SDS011;6139;51.274;7.128;2022-12-29T03:20:52;1.20;;;0.90;;
12151;SDS011;6139;51.274;7.128;2022-12-29T03:21:57;1.10;;;1.00;;
12151;SDS011;6139;51.274;7.128;2022-12-29T03:23:27;0.90;;;0.80;;
12151;SDS011;6139;51.274;7.128;2022-12-29T03:24:32;1.70;;;1.00;;
12151;SDS011;6139;51.274;7.128;2022-12-29T03:25:39;2.35;;;0.95;;
12151;SDS011;6139;51.274;7.128;2022-12-29T03:26:45;1.17;;;1.00;;
12151;SDS011;6139;51.274;7.128;2022-12-29T03:27:50;1.00;;;0.90;;
12151;SDS011;6139;51.274;7.128;2022-12-29T03:28:56;1.35;;;1.10;;
12151;SDS011;6139;51.274;7.128;2022-12-29T03:30:00;1.33;;;0.90;;
12151;SDS011;6139;51.274;7.128;2022-12-29T03:31:04;1.27;;;0.90;;
12151;SDS011;6139;51.274;7.128;2022-12-29T03:32:08;1.13;;;0.90;;
12151;SDS011;6139;51.274;7.128;2022-12-29T03:33:15;1.27;;;1.08;;
12151;SDS011;6139;51.274;7.128;2022-12-29T03:34:21;1.42;;;1.00;;
12151;SDS011;6139;51.274;7.128;2022-12-29T03:35:25;1.00;;;0.90;;
12151;SDS011;6139;51.274;7.128;2022-12-29T03:36:30;1.27;;;1.00;;
12151;SDS011;6139;51.274;7.128;2022-12-29T03:37:36;1.67;;;1.05;;
12151;SDS011;6139;51.274;7.128;2022-12-29T03:38:43;1.03;;;0.83;;
12151;SDS011;6139;51.274;7.128;2022-12-29T03:39:47;0.93;;;0.93;;
12151;SDS011;6139;51.274;7.128;2022-12-29T03:40:50;1.20;;;1.00;;
12151;SDS011;6139;51.274;7.128;2022-12-29T03:41:57;1.20;;;1.10;;
12151;SDS011;6139;51.274;7.128;2022-12-29T03:43:03;1.98;;;1.10;;
12151;SDS011;6139;51.274;7.128;2022-12-29T03:44:07;1.90;;;0.90;;
12151;SDS011;6139;51.274;7.128;2022-12-29T03:45:10;1.53;;;1.07;;
12151;SDS011;6139;51.274;7.128;2022-12-29T03:46:12;1.17;;;0.90;;
12151;SDS011;6139;51.274;7.128;2022-12-29T03:47:15;1.00;;;0.90;;
12151;SDS011;6139;51.274;7.128;2022-12-29T03:48:20;1.03;;;1.00;;
12151;SDS011;6139;51.274;7.128;2022-12-29T03:49:23;1.73;;;1.00;;
12151;SDS011;6139;51.274;7.128;2022-12-29T03:50:25;1.67;;;0.90;;
12151;SDS011;6139;51.274;7.128;2022-12-29T03:51:27;0.90;;;0.90;;
12151;SDS011;6139;51.274;7.128;2022-12-29T03:52:28;1.60;;;1.00;;
12151;SDS011;6139;51.274;7.128;2022-12-29T03:53:30;0.90;;;0.80;;
12151;SDS011;6139;51.274;7.128;2022-12-29T03:54:32;0.87;;;0.80;;
12151;SDS011;6139;51.274;7.128;2022-12-29T03:55:34;1.10;;;1.00;;
12151;SDS011;6139;51.274;7.128;2022-12-29T03:56:35;0.80;;;0.80;;
12151;SDS011;6139;51.274;7.128;2022-12-29T03:57:37;1.87;;;1.00;;
12151;SDS011;6139;51.274;7.128;2022-12-29T03:58:41;1.80;;;1.20;;
12151;SDS011;6139;51.274;7.128;2022-12-29T03:59:47;1.00;;;1.00;;
12151;SDS011;6139;51.274;7.128;2022-12-29T04:00:49;0.90;;;0.90;;
12151;SDS011;6139;51.274;7.128;2022-12-29T04:01:51;1.03;;;0.93;;
12151;SDS011;6139;51.274;7.128;2022-12-29T04:02:52;1.60;;;1.13;;
12151;SDS011;6139;51.274;7.128;2022-12-29T04:03:58;1.57;;;1.00;;
12151;SDS011;6139;51.274;7.128;2022-12-29T04:04:59;1.10;;;1.00;;
12151;SDS011;6139;51.274;7.128;2022-12-29T04:06:01;1.07;;;0.90;;
12151;SDS011;6139;51.274;7.128;2022-12-29T04:07:09;0.90;;;0.90;;
12151;SDS011;6139;51.274;7.128;2022-12-29T04:08:11;0.90;;;0.90;;
12151;SDS011;6139;51.274;7.128;2022-12-29T04:09:12;0.80;;;0.80;;
12151;SDS011;6139;51.274;7.128;2022-12-29T04:10:18;1.83;;;1.10;;
12151;SDS011;6139;51.274;7.128;2022-12-29T04:11:21;0.87;;;0.87;;
12151;SDS011;6139;51.274;7.128;2022-12-29T04:12:24;0.97;;;0.80;;
12151;SDS011;6139;51.274;7.128;2022-12-29T04:13:25;2.03;;;1.00;;
12151;SDS011;6139;51.274;7.128;2022-12-29T04:14:27;1.50;;;1.00;;
12151;SDS011;6139;51.274;7.128;2022-12-29T04:15:28;1.20;;;0.90;;
12151;SDS011;6139;51.274;7.128;2022-12-29T04:16:31;1.17;;;1.03;;
12151;SDS011;6139;51.274;7.128;2022-12-29T04:17:35;0.80;;;0.80;;
12151;SDS011;6139;51.274;7.128;2022-12-29T04:18:39;1.83;;;0.90;;
12151;SDS011;6139;51.274;7.128;2022-12-29T04:19:42;2.00;;;0.97;;
12151;SDS011;6139;51.274;7.128;2022-12-29T04:20:44;1.10;;;0.90;;
12151;SDS011;6139;51.274;7.128;2022-12-29T04:22:01;0.90;;;0.90;;
12151;SDS011;6139;51.274;7.128;2022-12-29T04:23:04;1.93;;;0.80;;
12151;SDS011;6139;51.274;7.128;2022-12-29T04:24:08;0.80;;;0.80;;
12151;SDS011;6139;51.274;7.128;2022-12-29T04:25:14;0.70;;;0.70;;
12151;SDS011;6139;51.274;7.128;2022-12-29T04:26:16;0.80;;;0.80;;
12151;SDS011;6139;51.274;7.128;2022-12-29T04:27:33;0.80;;;0.80;;
12151;SDS011;6139;51.274;7.128;2022-12-29T04:29:01;1.40;;;0.83;;
12151;SDS011;6139;51.274;7.128;2022-12-29T04:30:15;0.80;;;0.80;;
12151;SDS011;6139;51.274;7.128;2022-12-29T04:31:27;0.97;;;0.93;;
12151;SDS011;6139;51.274;7.128;2022-12-29T04:32:28;0.70;;;0.70;;
12151;SDS011;6139;51.274;7.128;2022-12-29T04:33:30;1.70;;;0.73;;
12151;SDS011;6139;51.274;7.128;2022-12-29T04:34:32;1.00;;;0.90;;
12151;SDS011;6139;51.274;7.128;2022-12-29T04:35:35;0.80;;;0.80;;
12151;SDS011;6139;51.274;7.128;2022-12-29T04:36:36;0.95;;;0.80;;
12151;SDS011;6139;51.274;7.128;2022-12-29T04:37:39;0.97;;;0.87;;
12151;SDS011;6139;51.274;7.128;2022-12-29T04:38:41;0.80;;;0.80;;
12151;SDS011;6139;51.274;7.128;2022-12-29T04:39:43;1.05;;;0.95;;
12151;SDS011;6139;51.274;7.128;2022-12-29T04:40:45;1.20;;;0.90;;
12151;SDS011;6139;51.274;7.128;2022-12-29T04:41:48;0.75;;;0.73;;
12151;SDS011;6139;51.274;7.128;2022-12-29T04:42:54;0.90;;;0.90;;
12151;SDS011;6139;51.274;7.128;2022-12-29T04:43:56;0.90;;;0.90;;
12151;SDS011;6139;51.274;7.128;2022-12-29T04:45:21;2.63;;;0.90;;
12151;SDS011;6139;51.274;7.128;2022-12-29T04:46:31;1.00;;;0.90;;
12151;SDS011;6139;51.274;7.128;2022-12-29T04:47:38;1.00;;;0.90;;
12151;SDS011;6139;51.274;7.128;2022-12-29T04:48:59;1.35;;;0.90;;
12151;SDS011;6139;51.274;7.128;2022-12-29T04:50:13;1.10;;;1.00;;
12151;SDS011;6139;51.274;7.128;2022-12-29T04:51:26;0.93;;;0.87;;
12151;SDS011;6139;51.274;7.128;2022-12-29T04:52:28;1.23;;;1.03;;
12151;SDS011;6139;51.274;7.128;2022-12-29T04:53:30;1.83;;;1.10;;
12151;SDS011;6139;51.274;7.128;2022-12-29T04:54:33;1.60;;;1.50;;
12151;SDS011;6139;51.274;7.128;2022-12-29T04:55:48;1.42;;;0.90;;
12151;SDS011;6139;51.274;7.128;2022-12-29T04:56:51;1.37;;;1.00;;
12151;SDS011;6139;51.274;7.128;2022-12-29T04:57:52;1.07;;;0.87;;
12151;SDS011;6139;51.274;7.128;2022-12-29T04:58:54;1.60;;;1.13;;
12151;SDS011;6139;51.274;7.128;2022-12-29T04:59:56;1.95;;;1.08;;
12151;SDS011;6139;51.274;7.128;2022-12-29T05:00:58;1.45;;;0.93;;
12151;SDS011;6139;51.274;7.128;2022-12-29T05:02:02;0.90;;;0.90;;
12151;SDS011;6139;51.274;7.128;2022-12-29T05:03:06;1.05;;;1.02;;
12151;SDS011;6139;51.274;7.128;2022-12-29T05:04:09;0.77;;;0.77;;
12151;SDS011;6139;51.274;7.128;2022-12-29T05:05:12;2.07;;;1.10;;
12151;SDS011;6139;51.274;7.128;2022-12-29T05:06:16;2.83;;;1.00;;
12151;SDS011;6139;51.274;7.128;2022-12-29T05:07:20;1.00;;;0.90;;
12151;SDS011;6139;51.274;7.128;2022-12-29T05:08:22;2.83;;;1.23;;
12151;SDS011;6139;51.274;7.128;2022-12-29T05:09:26;2.10;;;1.00;;
12151;SDS011;6139;51.274;7.128;2022-12-29T05:10:27;0.80;;;0.80;;
12151;SDS011;6139;51.274;7.128;2022-12-29T05:11:32;0.90;;;0.83;;
12151;SDS011;6139;51.274;7.128;2022-12-29T05:12:35;1.75;;;0.90;;
12151;SDS011;6139;51.274;7.128;2022-12-29T05:13:38;1.80;;;0.90;;
12151;SDS011;6139;51.274;7.128;2022-12-29T05:14:40;1.73;;;1.23;;
12151;SDS011;6139;51.274;7.128;2022-12-29T05:15:45;0.80;;;0.80;;
12151;SDS011;6139;51.274;7.128;2022-12-29T05:16:49;1.23;;;0.90;;
12151;SDS011;6139;51.274;7.128;2022-12-29T05:17:51;1.77;;;1.10;;
12151;SDS011;6139;51.274;7.128;2022-12-29T05:18:53;1.80;;;1.10;;
12151;SDS011;6139;51.274;7.128;2022-12-29T05:19:54;0.80;;;0.80;;
12151;SDS011;6139;51.274;7.128;2022-12-29T05:20:56;1.60;;;1.10;;
12151;SDS011;6139;51.274;7.128;2022-12-29T05:21:58;1.67;;;0.97;;
12151;SDS011;6139;51.274;7.128;2022-12-29T05:23:01;1.23;;;0.93;;
12151;SDS011;6139;51.274;7.128;2022-12-29T05:24:02;1.00;;;0.90;;
12151;SDS011;6139;51.274;7.128;2022-12-29T05:25:05;1.55;;;0.98;;
12151;SDS011;6139;51.274;7.128;2022-12-29T05:26:16;0.80;;;0.80;;
12151;SDS011;6139;51.274;7.128;2022-12-29T05:27:30;0.97;;;0.90;;
12151;SDS011;6139;51.274;7.128;2022-12-29T05:28:52;2.10;;;0.97;;
12151;SDS011;6139;51.274;7.128;2022-12-29T05:29:54;1.35;;;0.95;;
12151;SDS011;6139;51.274;7.128;2022-12-29T05:30:55;3.22;;;1.10;;
12151;SDS011;6139;51.274;7.128;2022-12-29T05:31:57;1.77;;;0.90;;
12151;SDS011;6139;51.274;7.128;2022-12-29T05:32:58;2.87;;;1.00;;
12151;SDS011;6139;51.274;7.128;2022-12-29T05:34:01;1.10;;;0.95;;
12151;SDS011;6139;51.274;7.128;2022-12-29T05:35:03;1.67;;;1.00;;
12151;SDS011;6139;51.274;7.128;2022-12-29T05:36:07;1.60;;;1.00;;
12151;SDS011;6139;51.274;7.128;2022-12-29T05:37:12;1.70;;;1.10;;
12151;SDS011;6139;51.274;7.128;2022-12-29T05:38:16;2.45;;;0.80;;
12151;SDS011;6139;51.274;7.128;2022-12-29T05:39:18;1.63;;;1.13;;
12151;SDS011;6139;51.274;7.128;2022-12-29T05:40:24;1.20;;;1.10;;
12151;SDS011;6139;51.274;7.128;2022-12-29T05:41:28;1.10;;;1.00;;
12151;SDS011;6139;51.274;7.128;2022-12-29T05:42:33;2.00;;;1.10;;
12151;SDS011;6139;51.274;7.128;2022-12-29T05:44:03;1.10;;;1.00;;
12151;SDS011;6139;51.274;7.128;2022-12-29T05:45:14;1.77;;;1.00;;
12151;SDS011;6139;51.274;7.128;2022-12-29T05:46:29;1.00;;;0.90;;
12151;SDS011;6139;51.274;7.128;2022-12-29T05:47:40;1.30;;;0.97;;
12151;SDS011;6139;51.274;7.128;2022-12-29T05:48:58;1.50;;;1.40;;
12151;SDS011;6139;51.274;7.128;2022-12-29T05:50:08;1.57;;;1.00;;
12151;SDS011;6139;51.274;7.128;2022-12-29T05:51:28;1.63;;;1.10;;
12151;SDS011;6139;51.274;7.128;2022-12-29T05:52:31;1.17;;;1.00;;
12151;SDS011;6139;51.274;7.128;2022-12-29T05:53:33;1.50;;;0.90;;
12151;SDS011;6139;51.274;7.128;2022-12-29T05:54:35;1.95;;;1.00;;
12151;SDS011;6139;51.274;7.128;2022-12-29T05:55:42;1.40;;;0.90;;
12151;SDS011;6139;51.274;7.128;2022-12-29T05:56:44;0.90;;;0.90;;
12151;SDS011;6139;51.274;7.128;2022-12-29T05:57:45;1.47;;;1.07;;
12151;SDS011;6139;51.274;7.128;2022-12-29T05:58:49;2.07;;;0.90;;
12151;SDS011;6139;51.274;7.128;2022-12-29T05:59:50;3.03;;;1.20;;
12151;SDS011;6139;51.274;7.128;2022-12-29T06:00:52;1.27;;;1.10;;
12151;SDS011;6139;51.274;7.128;2022-12-29T06:01:53;1.47;;;0.90;;
12151;SDS011;6139;51.274;7.128;2022-12-29T06:02:55;1.90;;;1.17;;
12151;SDS011;6139;51.274;7.128;2022-12-29T06:03:56;0.90;;;0.85;;
12151;SDS011;6139;51.274;7.128;2022-12-29T06:04:58;0.93;;;0.90;;
12151;SDS011;6139;51.274;7.128;2022-12-29T06:05:59;2.13;;;1.03;;
12151;SDS011;6139;51.274;7.128;2022-12-29T06:07:01;1.87;;;1.17;;
12151;SDS011;6139;51.274;7.128;2022-12-29T06:08:13;1.37;;;0.90;;
12151;SDS011;6139;51.274;7.128;2022-12-29T06:09:16;2.90;;;1.10;;
12151;SDS011;6139;51.274;7.128;2022-12-29T06:10:17;1.30;;;0.90;;
12151;SDS011;6139;51.274;7.128;2022-12-29T06:11:33;1.17;;;0.90;;
12151;SDS011;6139;51.274;7.128;2022-12-29T06:12:34;1.40;;;1.00;;
12151;SDS011;6139;51.274;7.128;2022-12-29T06:13:36;1.98;;;1.00;;
12151;SDS011;6139;51.274;7.128;2022-12-29T06:14:38;2.17;;;1.25;;
12151;SDS011;6139;51.274;7.128;2022-12-29T06:15:40;1.33;;;1.15;;
12151;SDS011;6139;51.274;7.128;2022-12-29T06:16:42;1.10;;;1.00;;
12151;SDS011;6139;51.274;7.128;2022-12-29T06:17:46;1.48;;;1.10;;
12151;SDS011;6139;51.274;7.128;2022-12-29T06:18:48;1.60;;;0.90;;
12151;SDS011;6139;51.274;7.128;2022-12-29T06:19:50;1.90;;;1.10;;
12151;SDS011;6139;51.274;7.128;2022-12-29T06:20:53;2.30;;;1.00;;
12151;SDS011;6139;51.274;7.128;2022-12-29T06:21:54;2.60;;;0.95;;
12151;SDS011;6139;51.274;7.128;2022-12-29T06:22:56;0.80;;;0.80;;
12151;SDS011;6139;51.274;7.128;2022-12-29T06:23:57;1.57;;;1.10;;
12151;SDS011;6139;51.274;7.128;2022-12-29T06:25:01;1.92;;;1.00;;
12151;SDS011;6139;51.274;7.128;2022-12-29T06:26:02;1.23;;;1.10;;
12151;SDS011;6139;51.274;7.128;2022-12-29T06:27:04;1.60;;;1.00;;
12151;SDS011;6139;51.274;7.128;2022-12-29T06:28:05;3.50;;;1.00;;
12151;SDS011;6139;51.274;7.128;2022-12-29T06:29:07;1.65;;;1.00;;
12151;SDS011;6139;51.274;7.128;2022-12-29T06:30:09;2.05;;;1.00;;
12151;SDS011;6139;51.274;7.128;2022-12-29T06:31:13;1.77;;;1.20;;
12151;SDS011;6139;51.274;7.128;2022-12-29T06:32:15;1.07;;;0.90;;
12151;SDS011;6139;51.274;7.128;2022-12-29T06:33:21;1.75;;;1.05;;
12151;SDS011;6139;51.274;7.128;2022-12-29T06:34:22;1.23;;;0.90;;
12151;SDS011;6139;51.274;7.128;2022-12-29T06:35:24;1.55;;;0.82;;
12151;SDS011;6139;51.274;7.128;2022-12-29T06:36:26;1.13;;;0.98;;
12151;SDS011;6139;51.274;7.128;2022-12-29T06:37:28;1.67;;;0.97;;
12151;SDS011;6139;51.274;7.128;2022-12-29T06:38:29;1.63;;;1.00;;
12151;SDS011;6139;51.274;7.128;2022-12-29T06:39:32;1.63;;;1.10;;
12151;SDS011;6139;51.274;7.128;2022-12-29T06:40:39;2.20;;;0.95;;
12151;SDS011;6139;51.274;7.128;2022-12-29T06:42:03;1.77;;;0.98;;
12151;SDS011;6139;51.274;7.128;2022-12-29T06:43:20;1.23;;;0.80;;
12151;SDS011;6139;51.274;7.128;2022-12-29T06:44:33;1.70;;;1.10;;
12151;SDS011;6139;51.274;7.128;2022-12-29T06:45:37;2.60;;;1.13;;
12151;SDS011;6139;51.274;7.128;2022-12-29T06:46:39;2.43;;;1.10;;
12151;SDS011;6139;51.274;7.128;2022-12-29T06:47:41;1.63;;;1.10;;
12151;SDS011;6139;51.274;7.128;2022-12-29T06:48:42;2.13;;;0.93;;
12151;SDS011;6139;51.274;7.128;2022-12-29T06:49:44;3.55;;;1.20;;
12151;SDS011;6139;51.274;7.128;2022-12-29T06:50:45;1.20;;;1.10;;